Time;durP1;ratioP1;P1;durP2;ratioP2;P2;SDS_P1;SDS_P2;PMS_P1;PMS_P2;Temp;Humidity;BMP_temperature;BMP_pressure;BME280_temperature;BME280_humidity;BME280_pressure;Samples;Min_cycle;Max_cycle;Signal;HPM_P1;HPM_P2
2023/10/11 00:05:53;;;;;;;14.77;7.78;;;;;;;15.05;80.64;98804.41;5030499;28;20120;-84
2023/10/11 00:08:19;;;;;;;12.70;7.50;;;;;;;14.91;80.74;98785.41;5028284;28;21921;-84
2023/10/11 00:10:54;;;;;;;18.20;8.93;;;;;;;14.89;80.67;98776.84;5029322;28;20470;-83
2023/10/11 00:13:21;;;;;;;17.80;7.90;;;;;;;14.92;80.20;98781.63;5020980;28;20045;-84
2023/10/11 00:15:50;;;;;;;14.48;7.72;;;;;;;15.02;80.35;98797.72;5032369;28;20478;-84
2023/10/11 00:18:35;;;;;;;16.00;8.32;;;;;;;14.98;80.49;98802.00;5030102;28;20044;-83
2023/10/11 00:21:09;;;;;;;12.70;7.38;;;;;;;14.99;80.47;98778.63;5029468;28;20117;-84
2023/10/11 00:23:36;;;;;;;11.82;8.45;;;;;;;15.03;80.14;98780.50;5017330;28;20109;-84
2023/10/11 00:26:02;;;;;;;14.10;7.97;;;;;;;15.07;80.30;98785.31;5031145;28;20032;-84
2023/10/11 00:28:31;;;;;;;13.25;7.43;;;;;;;15.08;80.64;98798.47;5022471;28;20485;-84
2023/10/11 00:31:00;;;;;;;12.55;7.43;;;;;;;15.09;80.62;98791.22;5024484;28;20040;-84
2023/10/11 00:33:27;;;;;;;18.50;7.32;;;;;;;14.99;80.10;98789.38;5027373;28;20083;-84
2023/10/11 00:35:54;;;;;;;25.45;8.90;;;;;;;15.06;79.81;98778.31;5029658;28;20033;-83
2023/10/11 00:38:27;;;;;;;16.38;8.63;;;;;;;15.08;79.72;98776.97;5026315;28;20107;-84
2023/10/11 00:41:01;;;;;;;19.48;7.80;;;;;;;15.14;80.09;98785.78;5025951;28;20029;-84
2023/10/11 00:43:41;;;;;;;17.50;8.65;;;;;;;14.89;79.63;98768.78;5031303;28;20040;-84
2023/10/11 00:46:13;;;;;;;16.13;7.70;;;;;;;15.08;79.75;98782.34;5028516;28;20029;-84
2023/10/11 00:49:07;;;;;;;17.73;8.15;;;;;;;14.91;80.31;98779.22;5031588;28;20060;-84
2023/10/11 00:51:33;;;;;;;13.35;8.20;;;;;;;14.85;80.76;98748.88;5029519;28;20484;-83
2023/10/11 00:54:04;;;;;;;13.32;8.10;;;;;;;15.05;80.21;98772.13;5013615;28;20034;-84
2023/10/11 00:56:33;;;;;;;14.45;8.20;;;;;;;15.01;80.22;98771.91;5011105;28;20037;-84
2023/10/11 00:59:13;;;;;;;17.10;9.77;;;;;;;14.78;80.28;98752.97;5027245;28;20040;-83
2023/10/11 01:01:38;;;;;;;15.30;7.68;;;;;;;14.90;80.94;98770.34;5029808;28;20044;-83
2023/10/11 01:04:06;;;;;;;13.70;7.85;;;;;;;14.63;80.96;98755.75;5027546;28;20033;-83
2023/10/11 01:06:34;;;;;;;11.20;7.60;;;;;;;14.97;80.63;98765.47;5031946;28;20048;-84
2023/10/11 01:09:00;;;;;;;11.98;7.82;;;;;;;14.84;80.54;98760.72;5031710;28;20036;-84
2023/10/11 01:11:26;;;;;;;14.18;7.55;;;;;;;14.90;80.07;98753.41;5011948;28;20153;-83
2023/10/11 01:13:52;;;;;;;12.07;7.40;;;;;;;14.77;80.65;98751.34;5008074;28;20640;-84
2023/10/11 01:16:26;;;;;;;14.48;8.48;;;;;;;14.68;80.77;98724.28;5032158;28;20033;-83
2023/10/11 01:18:52;;;;;;;15.93;7.15;;;;;;;14.75;80.87;98732.03;5026980;28;20029;-83
2023/10/11 01:21:19;;;;;;;12.98;8.70;;;;;;;14.99;80.11;98741.00;5030730;28;20656;-83
2023/10/11 01:23:44;;;;;;;13.00;7.82;;;;;;;14.92;80.17;98746.69;5032345;28;20034;-84
2023/10/11 01:26:10;;;;;;;15.38;7.57;;;;;;;14.60;80.57;98724.84;5029148;28;20044;-84
2023/10/11 01:28:44;;;;;;;15.85;7.20;;;;;;;14.88;80.23;98742.97;5023821;28;20072;-83
2023/10/11 01:31:10;;;;;;;29.35;8.45;;;;;;;14.87;79.93;98732.50;5011980;28;20037;-84
2023/10/11 01:33:41;;;;;;;12.88;6.97;;;;;;;14.89;79.89;98724.97;5030884;28;20654;-84
2023/10/11 01:36:08;;;;;;;11.43;7.57;;;;;;;14.81;80.74;98741.66;5029931;28;20104;-84
2023/10/11 01:38:46;;;;;;;15.30;8.27;;;;;;;14.72;79.97;98719.16;5029063;28;20053;-83
2023/10/11 01:41:14;;;;;;;16.88;8.82;;;;;;;14.91;80.27;98737.03;5025133;28;20044;-83
2023/10/11 01:43:39;;;;;;;22.85;8.10;;;;;;;14.85;79.91;98738.13;5008460;28;20128;-83
2023/10/11 01:46:05;;;;;;;15.10;7.80;;;;;;;14.87;79.73;98737.88;5025861;28;20046;-83
2023/10/11 01:48:30;;;;;;;14.23;7.70;;;;;;;14.73;79.82;98716.19;5012189;28;20467;-84
2023/10/11 01:51:05;;;;;;;13.57;8.77;;;;;;;14.67;80.45;98732.63;4991789;28;20042;-83
2023/10/11 01:53:31;;;;;;;14.48;7.47;;;;;;;14.76;80.21;98733.63;5023650;28;20033;-84
2023/10/11 01:55:56;;;;;;;14.13;8.23;;;;;;;14.74;80.41;98714.31;5023865;28;20027;-83
2023/10/11 01:58:22;;;;;;;11.70;6.82;;;;;;;14.67;79.79;98708.44;5029590;28;20536;-84
2023/10/11 02:00:49;;;;;;;17.50;7.65;;;;;;;14.69;80.28;98711.66;5028114;28;20375;-83
2023/10/11 02:03:15;;;;;;;15.82;8.20;;;;;;;14.76;80.12;98725.59;5021296;28;20571;-83
2023/10/11 02:05:41;;;;;;;12.82;7.38;;;;;;;14.51;80.18;98698.84;5027050;28;20037;-83
2023/10/11 02:08:06;;;;;;;9.02;6.72;;;;;;;14.57;80.50;98703.91;5029872;28;20041;-83
2023/10/11 02:10:36;;;;;;;14.40;8.20;;;;;;;14.64;80.90;98717.84;5021403;28;20067;-83
2023/10/11 02:13:04;;;;;;;12.98;7.13;;;;;;;14.77;80.16;98703.78;5025220;28;20029;-83
2023/10/11 02:15:29;;;;;;;12.18;6.75;;;;;;;14.75;79.88;98705.16;5022602;28;20032;-83
2023/10/11 02:17:58;;;;;;;12.52;6.63;;;;;;;14.73;80.70;98699.25;5004829;28;20482;-83
2023/10/11 02:20:24;;;;;;;14.73;8.00;;;;;;;14.72;80.13;98694.97;5028068;28;20067;-83
2023/10/11 02:22:55;;;;;;;14.25;7.47;;;;;;;14.67;80.46;98708.44;4999476;28;20033;-83
2023/10/11 02:25:25;;;;;;;13.38;6.80;;;;;;;14.62;80.25;98703.91;5005301;28;20037;-83
2023/10/11 02:27:51;;;;;;;17.00;8.27;;;;;;;14.61;79.98;98688.84;5029472;28;20029;-83
2023/10/11 02:30:21;;;;;;;10.90;6.88;;;;;;;14.70;80.54;98689.88;5023995;28;20433;-83
2023/10/11 02:32:59;;;;;;;13.05;7.15;;;;;;;14.71;79.83;98680.75;5005288;28;20425;-83
2023/10/11 02:35:31;;;;;;;16.23;7.95;;;;;;;14.77;80.10;98681.50;5019622;28;20030;-83
2023/10/11 02:37:58;;;;;;;9.55;6.50;;;;;;;14.67;80.38;98682.38;5025692;28;20561;-83
2023/10/11 02:40:24;;;;;;;12.82;7.60;;;;;;;14.62;79.80;98670.84;5018359;28;20022;-83
2023/10/11 02:42:51;;;;;;;15.25;8.18;;;;;;;14.63;79.94;98667.09;4992326;28;20067;-84
2023/10/11 02:45:19;;;;;;;16.38;7.47;;;;;;;14.67;80.44;98676.19;5016922;28;20508;-83
2023/10/11 02:47:49;;;;;;;14.88;8.00;;;;;;;14.47;80.45;98666.38;5023054;28;20036;-83
2023/10/11 02:50:15;;;;;;;14.65;7.82;;;;;;;14.51;80.64;98667.44;5001178;28;20095;-83
2023/10/11 02:52:42;;;;;;;16.20;7.60;;;;;;;14.76;79.81;98675.34;5023413;28;20045;-84
2023/10/11 02:55:27;;;;;;;15.93;8.32;;;;;;;14.50;79.99;98641.66;5018304;28;20113;-83
2023/10/11 02:58:08;;;;;;;13.25;7.47;;;;;;;14.51;80.25;98645.13;5021716;28;20569;-83
2023/10/11 03:00:34;;;;;;;17.90;8.00;;;;;;;14.66;80.23;98648.53;5019932;28;20025;-83
2023/10/11 03:03:00;;;;;;;11.90;6.82;;;;;;;14.63;79.86;98662.53;5006521;28;20099;-83
2023/10/11 03:05:29;;;;;;;14.80;8.07;;;;;;;14.60;80.43;98655.03;5021618;28;20033;-84
2023/10/11 03:07:55;;;;;;;13.30;6.93;;;;;;;14.59;79.91;98642.66;5026112;28;20128;-84
2023/10/11 03:10:22;;;;;;;16.10;7.68;;;;;;;14.69;80.23;98664.09;5028961;28;20480;-83
2023/10/11 03:12:51;;;;;;;14.23;8.00;;;;;;;14.50;80.24;98643.53;5010548;28;20120;-84
2023/10/11 03:15:19;;;;;;;17.30;8.32;;;;;;;14.53;80.59;98640.28;4992684;28;20449;-84
2023/10/11 03:17:52;;;;;;;12.80;7.60;;;;;;;14.61;80.75;98666.56;5012148;28;20080;-84
2023/10/11 03:20:28;;;;;;;12.65;8.25;;;;;;;14.65;80.31;98663.06;5020680;28;20030;-84
2023/10/11 03:22:54;;;;;;;14.80;7.72;;;;;;;14.13;80.82;98587.63;4993503;28;20028;-84
2023/10/11 03:25:19;;;;;;;13.93;7.07;;;;;;;14.77;80.15;98652.75;5024831;28;20030;-84
2023/10/11 03:27:49;;;;;;;13.73;7.05;;;;;;;14.60;80.45;98652.34;5023562;28;20033;-84
2023/10/11 03:30:15;;;;;;;14.30;7.60;;;;;;;14.52;80.35;98641.38;5024757;28;20037;-84
2023/10/11 03:32:44;;;;;;;15.55;7.63;;;;;;;14.54;79.90;98639.22;5027407;28;20037;-83
2023/10/11 03:35:10;;;;;;;12.18;7.47;;;;;;;14.64;80.21;98650.69;5028369;28;20034;-83
2023/10/11 03:37:37;;;;;;;11.38;6.97;;;;;;;14.62;80.35;98652.03;5024434;28;20099;-84
2023/10/11 03:40:13;;;;;;;12.13;7.03;;;;;;;14.67;80.49;98658.22;5030983;28;20052;-84
2023/10/11 03:42:59;;;;;;;12.05;7.07;;;;;;;14.63;79.83;98634.88;5025967;28;20083;-83
2023/10/11 03:45:27;;;;;;;13.63;7.35;;;;;;;14.62;80.27;98663.59;5025783;28;20374;-84
2023/10/11 03:47:53;;;;;;;12.85;7.32;;;;;;;14.67;80.02;98655.53;5007742;28;20527;-84
2023/10/11 03:50:32;;;;;;;20.17;9.05;;;;;;;14.63;80.00;98640.22;5024648;28;20034;-83
2023/10/11 03:53:06;;;;;;;12.45;7.30;;;;;;;14.55;80.05;98641.63;5009425;28;20116;-83
2023/10/11 03:55:32;;;;;;;16.25;7.15;;;;;;;14.62;79.90;98647.47;5012936;28;20485;-84
2023/10/11 03:57:57;;;;;;;14.13;7.43;;;;;;;14.74;79.63;98663.25;5022710;28;20088;-84
2023/10/11 04:00:25;;;;;;;15.65;7.47;;;;;;;14.64;80.21;98660.63;5026511;28;20034;-83
2023/10/11 04:02:57;;;;;;;15.73;7.85;;;;;;;14.19;79.88;98583.84;5010948;28;20040;-83
2023/10/11 04:05:28;;;;;;;12.30;7.35;;;;;;;14.69;79.72;98656.03;5021597;28;20119;-84
2023/10/11 04:07:55;;;;;;;14.82;7.45;;;;;;;14.68;79.72;98648.25;5024662;28;20026;-83
2023/10/11 04:10:36;;;;;;;12.65;7.20;;;;;;;14.57;79.79;98641.34;5000787;28;20026;-83
2023/10/11 04:13:04;;;;;;;13.00;7.50;;;;;;;14.69;79.68;98653.34;5022437;28;20405;-83
2023/10/11 04:15:33;;;;;;;12.55;6.82;;;;;;;14.67;79.71;98655.53;5013134;28;20037;-83
2023/10/11 04:18:05;;;;;;;14.07;6.60;;;;;;;14.68;79.95;98658.97;5007838;28;20057;-83
2023/10/11 04:20:33;;;;;;;15.95;9.10;;;;;;;14.54;79.14;98641.91;5013549;28;20034;-82
2023/10/11 04:23:16;;;;;;;12.80;7.28;;;;;;;14.60;79.44;98649.66;5026328;28;20030;-82
2023/10/11 04:25:43;;;;;;;16.67;7.82;;;;;;;14.56;80.13;98637.06;5002359;28;20042;-82
2023/10/11 04:28:12;;;;;;;13.27;7.38;;;;;;;14.56;79.60;98645.91;4993734;28;20486;-82
2023/10/11 04:30:43;;;;;;;14.73;7.43;;;;;;;14.53;79.68;98645.66;5007308;28;20111;-82
2023/10/11 04:33:12;;;;;;;9.85;6.78;;;;;;;14.48;79.90;98630.38;5026250;28;20477;-82
2023/10/11 04:35:37;;;;;;;12.73;7.38;;;;;;;14.44;79.79;98628.56;5018984;28;20060;-82
2023/10/11 04:38:04;;;;;;;11.27;7.82;;;;;;;14.37;80.01;98628.88;5005907;28;20124;-83
2023/10/11 04:43:06;;;;;;;12.75;7.22;;;;;;;14.50;79.74;98644.34;5027540;28;20037;-82
2023/10/11 04:45:44;;;;;;;11.60;6.50;;;;;;;14.55;79.07;98646.19;5018959;28;20038;-82
2023/10/11 04:48:18;;;;;;;15.52;7.63;;;;;;;14.51;79.54;98639.75;5033046;28;20075;-83
2023/10/11 04:50:45;;;;;;;13.48;8.20;;;;;;;14.51;79.21;98637.88;5029027;28;20049;-82
2023/10/11 04:53:22;;;;;;;14.02;7.10;;;;;;;14.52;79.57;98641.38;5028079;28;20090;-82
2023/10/11 04:55:58;;;;;;;16.83;6.93;;;;;;;14.40;79.31;98622.91;5017160;28;20034;-82
2023/10/11 04:59:06;;;;;;;14.88;7.65;;;;;;;14.45;79.09;98647.06;5028133;28;20036;-82
2023/10/11 05:01:22;;;;;;;11.73;7.10;;;;;;;14.48;79.28;98645.72;5023068;28;20081;-82
2023/10/11 05:03:58;;;;;;;15.02;7.00;;;;;;;14.46;79.19;98631.75;5014085;28;20064;-82
2023/10/11 05:06:31;;;;;;;11.00;6.93;;;;;;;14.42;78.79;98628.00;5022726;28;20029;-82
2023/10/11 05:09:12;;;;;;;16.00;8.15;;;;;;;14.50;78.87;98638.97;5015045;28;20490;-83
2023/10/11 05:11:42;;;;;;;12.43;6.95;;;;;;;14.42;78.94;98630.69;5018609;28;20104;-82
2023/10/11 05:14:26;;;;;;;12.27;6.25;;;;;;;14.56;78.74;98629.81;5012162;28;20026;-82
2023/10/11 05:16:59;;;;;;;16.23;7.78;;;;;;;14.43;79.27;98627.75;5030820;28;20060;-82
2023/10/11 05:19:28;;;;;;;20.48;8.52;;;;;;;14.40;78.72;98611.38;5016896;28;20034;-82
2023/10/11 05:21:55;;;;;;;12.50;7.22;;;;;;;14.31;79.08;98613.84;5016763;28;20036;-82
2023/10/11 05:24:33;;;;;;;12.25;6.72;;;;;;;14.44;78.98;98626.66;5032026;28;20107;-82
2023/10/11 05:32:32;;;;;;;12.50;6.88;;;;;;;14.47;78.52;98634.16;5033160;28;20657;-82
2023/10/11 05:51:39;;;;;;;14.77;7.65;;;;;;;14.43;78.49;98626.94;5030588;28;20075;-82
2023/10/11 05:54:07;;;;;;;11.88;6.88;;;;;;;14.39;78.53;98620.53;5031330;28;20500;-82
2023/10/11 05:56:33;;;;;;;14.13;6.72;;;;;;;14.37;78.04;98622.69;5006363;28;20477;-82
2023/10/11 05:59:03;;;;;;;14.02;6.82;;;;;;;14.34;78.38;98617.84;5029422;28;20022;-82
2023/10/11 06:01:30;;;;;;;12.93;6.22;;;;;;;14.41;78.37;98626.41;5025405;28;20029;-82
2023/10/11 06:03:56;;;;;;;12.13;6.75;;;;;;;14.38;78.48;98619.72;5031165;28;20473;-82
2023/10/11 06:09:15;;;;;;;13.98;6.93;;;;;;;14.44;78.30;98631.25;5031699;28;20041;-82
2023/10/11 06:11:43;;;;;;;12.75;6.07;;;;;;;14.35;78.46;98624.84;5030433;28;20124;-82
2023/10/11 06:14:12;;;;;;;17.58;7.78;;;;;;;14.39;77.74;98625.91;5000007;28;20458;-81
2023/10/11 06:16:38;;;;;;;20.80;6.40;;;;;;;14.40;78.09;98628.28;5013637;28;20055;-82
2023/10/11 06:19:18;;;;;;;11.18;6.68;;;;;;;14.47;77.98;98631.47;5014253;28;20117;-82
2023/10/11 06:21:58;;;;;;;18.35;6.85;;;;;;;14.34;78.22;98615.97;5029594;28;20029;-82
2023/10/11 06:24:25;;;;;;;17.10;7.05;;;;;;;14.43;77.71;98614.31;5024101;28;20033;-82
2023/10/11 06:26:52;;;;;;;14.75;6.55;;;;;;;14.28;77.61;98599.06;5025294;28;20052;-82
2023/10/11 06:29:29;;;;;;;13.48;7.28;;;;;;;14.41;77.99;98608.44;5013642;28;20114;-82
2023/10/11 06:31:55;;;;;;;16.83;6.97;;;;;;;14.41;78.11;98611.13;5016798;28;20041;-82
2023/10/11 06:34:32;;;;;;;13.70;6.88;;;;;;;14.39;78.05;98621.31;5033393;28;20030;-82
2023/10/11 06:36:58;;;;;;;16.23;6.93;;;;;;;14.54;78.13;98644.59;5032211;28;20021;-82
2023/10/11 06:42:12;;;;;;;13.63;7.03;;;;;;;14.50;77.71;98640.88;5029981;28;20060;-82
2023/10/11 06:44:42;;;;;;;16.42;6.65;;;;;;;14.44;78.26;98650.03;5012773;28;20037;-82
2023/10/11 06:47:11;;;;;;;13.75;6.72;;;;;;;14.55;78.48;98644.31;5027883;28;20033;-82
2023/10/11 06:49:40;;;;;;;13.45;6.70;;;;;;;14.53;78.07;98648.34;4991156;28;20899;-82
2023/10/11 06:52:07;;;;;;;12.75;6.43;;;;;;;14.47;77.62;98620.72;5021595;28;20025;-82
2023/10/11 06:54:32;;;;;;;11.82;6.57;;;;;;;14.64;77.54;98645.31;5032517;28;20072;-82
2023/10/11 06:56:58;;;;;;;16.90;7.10;;;;;;;14.64;77.85;98634.56;5015503;28;20128;-82
2023/10/11 06:59:24;;;;;;;12.70;6.68;;;;;;;14.63;77.52;98616.06;5014653;28;20029;-82
2023/10/11 07:01:49;;;;;;;15.15;6.43;;;;;;;14.76;77.26;98643.09;5027992;28;20037;-82
2023/10/11 07:04:18;;;;;;;15.82;5.93;;;;;;;14.80;77.16;98638.75;5022480;28;20079;-81
2023/10/11 07:06:46;;;;;;;14.57;7.05;;;;;;;14.79;77.45;98647.91;5009158;28;20057;-82
2023/10/11 07:09:21;;;;;;;15.07;6.55;;;;;;;14.85;77.00;98636.00;5029076;28;20057;-81
2023/10/11 07:11:52;;;;;;;14.27;6.07;;;;;;;14.86;77.13;98634.94;5025144;28;20112;-81
2023/10/11 07:14:18;;;;;;;15.00;7.18;;;;;;;14.95;76.89;98632.47;5018260;28;20353;-81
2023/10/11 07:16:44;;;;;;;12.15;5.97;;;;;;;15.01;76.34;98628.63;5032780;28;20029;-81
2023/10/11 07:19:11;;;;;;;13.38;6.45;;;;;;;15.08;76.34;98642.56;5010661;28;20480;-81
2023/10/11 07:27:09;;;;;;;10.98;6.13;;;;;;;15.13;75.40;98644.41;5003018;28;20526;-81
2023/10/11 07:29:44;;;;;;;11.27;5.90;;;;;;;15.17;75.48;98637.38;5015338;28;20060;-82
2023/10/11 07:32:10;;;;;;;10.75;5.97;;;;;;;15.26;74.95;98636.47;4998417;28;20433;-81
2023/10/11 07:34:37;;;;;;;14.95;5.97;;;;;;;15.24;75.09;98627.09;5014011;28;20042;-82
2023/10/11 07:37:05;;;;;;;15.57;6.35;;;;;;;15.29;75.02;98629.75;4999906;28;20504;-81
2023/10/11 07:39:33;;;;;;;12.40;5.80;;;;;;;15.22;74.47;98610.44;5032547;28;20024;-81
2023/10/11 07:42:44;;;;;;;13.52;6.25;;;;;;;15.31;74.16;98622.19;5043182;28;20026;-81
2023/10/11 07:44:51;;;;;;;15.00;7.63;;;;;;;15.36;74.80;98631.00;5013741;28;20033;-81
2023/10/11 07:47:18;;;;;;;11.02;5.75;;;;;;;15.36;74.30;98628.31;5012970;28;20064;-81
2023/10/11 07:49:44;;;;;;;15.95;5.57;;;;;;;15.46;73.63;98641.69;5027569;28;20104;-82
2023/10/11 07:52:10;;;;;;;10.02;5.68;;;;;;;15.36;73.36;98614.03;5030080;28;20033;-81
2023/10/11 07:54:39;;;;;;;11.07;5.50;;;;;;;15.59;73.16;98643.72;5026140;28;20087;-81
2023/10/11 07:57:04;;;;;;;11.43;6.15;;;;;;;15.55;73.00;98623.03;5033647;28;20041;-81
2023/10/11 07:59:30;;;;;;;14.90;6.80;;;;;;;15.63;73.13;98644.75;5032172;28;20033;-81
2023/10/11 08:01:59;;;;;;;17.83;5.93;;;;;;;15.74;72.89;98645.41;5031551;28;20036;-81
2023/10/11 08:04:29;;;;;;;13.68;6.70;;;;;;;15.72;72.27;98639.53;5029937;28;20041;-82
2023/10/11 08:07:03;;;;;;;11.18;6.57;;;;;;;15.83;71.93;98634.81;5032967;28;20539;-82
2023/10/11 08:09:52;;;;;;;10.43;6.35;;;;;;;15.75;72.08;98622.78;5032005;28;20029;-81
2023/10/11 08:12:21;;;;;;;10.88;5.75;;;;;;;15.92;71.57;98639.28;5011605;28;20570;-81
2023/10/11 08:14:47;;;;;;;10.90;6.10;;;;;;;15.97;71.53;98649.97;5031404;28;20087;-81
2023/10/11 08:17:17;;;;;;;13.90;6.07;;;;;;;15.96;71.74;98652.97;5032200;28;20385;-81
2023/10/11 08:19:46;;;;;;;10.60;5.85;;;;;;;16.02;71.49;98649.94;5029102;28;20057;-82
2023/10/11 08:22:14;;;;;;;13.13;6.47;;;;;;;15.92;71.85;98633.91;5026048;28;20120;-81
2023/10/11 08:24:49;;;;;;;10.70;6.13;;;;;;;15.95;71.92;98648.66;5031553;28;20429;-82
2023/10/11 08:27:28;;;;;;;16.00;6.15;;;;;;;15.99;71.01;98645.09;5025410;28;20025;-80
2023/10/11 08:30:16;;;;;;;15.02;7.72;;;;;;;15.91;71.32;98637.69;5019598;28;20029;-81
2023/10/11 08:32:47;;;;;;;9.70;5.47;;;;;;;15.90;71.72;98624.53;5031252;28;20025;-81
2023/10/11 08:35:23;;;;;;;9.20;5.30;;;;;;;16.00;71.12;98635.16;5023840;28;20040;-81
2023/10/11 08:37:52;;;;;;;12.52;6.18;;;;;;;16.05;71.12;98638.59;5018063;28;20556;-81
2023/10/11 08:40:23;;;;;;;12.23;7.22;;;;;;;16.15;70.63;98645.72;5032601;28;20032;-81
2023/10/11 08:42:52;;;;;;;11.45;5.75;;;;;;;16.09;70.86;98628.03;5029631;28;20451;-81
2023/10/11 08:45:47;;;;;;;15.57;6.80;;;;;;;16.19;70.12;98635.97;5031126;28;20439;-81
2023/10/11 08:48:12;;;;;;;11.85;5.82;;;;;;;16.27;69.91;98630.72;5024556;28;20108;-81
2023/10/11 08:50:38;;;;;;;8.95;4.80;;;;;;;16.36;70.62;98625.50;5026514;28;20120;-81
2023/10/11 08:53:07;;;;;;;10.95;5.35;;;;;;;16.42;69.63;98630.53;5026678;28;20393;-81
2023/10/11 08:55:36;;;;;;;14.52;5.85;;;;;;;16.28;70.22;98605.41;5026869;28;20026;-81
2023/10/11 08:58:05;;;;;;;15.32;5.72;;;;;;;16.44;69.32;98622.16;5020016;28;20018;-80
2023/10/11 09:00:33;;;;;;;13.88;6.38;;;;;;;16.46;68.67;98606.50;5026161;28;20030;-81
2023/10/11 09:03:18;;;;;;;14.43;5.68;;;;;;;16.46;68.29;98610.00;5033387;28;20108;-81
2023/10/11 09:05:45;;;;;;;19.63;6.03;;;;;;;16.60;68.16;98612.00;5030057;28;20045;-81
2023/10/11 09:08:36;;;;;;;9.63;5.72;;;;;;;16.47;68.31;98592.72;5032415;28;20025;-81
2023/10/11 09:11:14;;;;;;;18.00;7.45;;;;;;;16.63;68.12;98606.00;5029326;28;20055;-81
2023/10/11 09:13:40;;;;;;;14.25;5.85;;;;;;;16.70;67.96;98583.00;5006971;28;20041;-82
2023/10/11 09:16:12;;;;;;;14.10;5.50;;;;;;;16.79;67.47;98608.19;5000568;28;20176;-81
2023/10/11 09:18:38;;;;;;;12.77;5.80;;;;;;;16.68;68.03;98584.38;5030928;28;20068;-81
2023/10/11 09:21:18;;;;;;;8.93;5.38;;;;;;;16.87;67.46;98606.69;5006646;28;20024;-82
2023/10/11 09:23:47;;;;;;;15.43;6.03;;;;;;;16.83;66.96;98589.50;5027847;28;20659;-81
2023/10/11 09:27:08;;;;;;;12.98;6.80;;;;;;;16.94;66.80;98596.34;5027567;28;20087;-82
2023/10/11 09:29:04;;;;;;;11.95;5.47;;;;;;;17.04;66.44;98601.53;5009594;28;20132;-82
2023/10/11 09:31:34;;;;;;;12.80;6.30;;;;;;;16.90;66.92;98587.25;5006541;28;20140;-81
2023/10/11 09:34:01;;;;;;;16.15;5.35;;;;;;;17.06;66.00;98610.13;5029447;28;20109;-81
2023/10/11 09:36:28;;;;;;;10.52;6.72;;;;;;;17.07;67.31;98596.38;5028554;28;20532;-81
2023/10/11 09:38:55;;;;;;;11.93;6.40;;;;;;;17.14;66.78;98621.06;5026306;28;20036;-81
2023/10/11 09:41:28;;;;;;;14.73;5.53;;;;;;;17.12;66.57;98619.75;5029003;28;20032;-81
2023/10/11 09:43:57;;;;;;;9.90;5.30;;;;;;;17.09;65.89;98604.16;5011287;28;20037;-81
2023/10/11 09:46:29;;;;;;;18.17;6.55;;;;;;;17.23;66.54;98619.28;5010907;28;20041;-81
2023/10/11 09:49:03;;;;;;;10.48;6.15;;;;;;;17.41;65.30;98628.41;5029548;28;20040;-81
2023/10/11 09:51:30;;;;;;;9.45;5.07;;;;;;;17.31;65.35;98604.31;5029885;28;20548;-81
2023/10/11 09:54:01;;;;;;;11.35;5.20;;;;;;;17.40;66.13;98612.50;5031609;28;20076;-81
2023/10/11 09:56:43;;;;;;;9.40;5.75;;;;;;;17.49;65.83;98630.41;5024536;28;20091;-81
2023/10/11 09:59:39;;;;;;;8.15;5.60;;;;;;;17.51;65.84;98628.25;5020240;28;20460;-81
2023/10/11 10:02:15;;;;;;;10.02;5.53;;;;;;;17.44;65.88;98610.81;5021586;28;20033;-81
2023/10/11 10:04:52;;;;;;;14.30;5.05;;;;;;;17.59;65.48;98630.25;5021148;28;20044;-81
2023/10/11 10:07:25;;;;;;;10.20;5.38;;;;;;;17.58;65.56;98612.44;5029931;28;20025;-81
2023/10/11 10:09:54;;;;;;;14.82;5.68;;;;;;;17.58;65.90;98625.94;5010835;28;20022;-81
2023/10/11 10:12:21;;;;;;;27.73;6.68;;;;;;;17.75;65.75;98628.88;5029357;28;20116;-82
2023/10/11 10:15:02;;;;;;;9.48;4.72;;;;;;;17.61;65.70;98617.25;5030031;28;20033;-81
2023/10/11 10:17:28;;;;;;;16.45;6.80;;;;;;;17.76;65.83;98635.84;5028289;28;20049;-81
2023/10/11 10:19:59;;;;;;;17.80;6.85;;;;;;;17.71;65.24;98621.66;5032055;28;20029;-81
2023/10/11 10:22:27;;;;;;;15.75;5.30;;;;;;;17.82;65.87;98629.25;5025742;28;20040;-81
2023/10/11 10:24:56;;;;;;;13.15;5.28;;;;;;;17.85;65.53;98638.66;5011357;28;20056;-83
2023/10/11 10:27:33;;;;;;;14.18;5.72;;;;;;;17.91;66.34;98630.16;5028133;28;20033;-84
2023/10/11 10:30:05;;;;;;;10.30;5.93;;;;;;;18.05;65.39;98623.94;5026096;28;20025;-83
2023/10/11 10:32:30;;;;;;;12.15;5.40;;;;;;;18.06;65.40;98622.84;5027651;28;20116;-83
2023/10/11 10:35:18;;;;;;;10.68;5.18;;;;;;;18.10;65.49;98619.25;5028990;28;20047;-83
2023/10/11 10:37:46;;;;;;;14.20;5.80;;;;;;;18.17;65.00;98616.94;5025264;28;20531;-82
2023/10/11 10:40:28;;;;;;;10.85;5.32;;;;;;;18.19;65.07;98619.31;5036604;28;20022;-83
2023/10/11 10:43:19;;;;;;;12.70;5.78;;;;;;;18.24;65.01;98624.63;5025099;28;20359;-84
2023/10/11 10:45:47;;;;;;;10.30;5.43;;;;;;;18.36;65.00;98595.16;5027259;28;20030;-83
2023/10/11 10:48:23;;;;;;;16.00;6.30;;;;;;;18.41;64.83;98620.16;5008117;28;20037;-83
2023/10/11 10:50:54;;;;;;;;;;;;;;;18.48;64.94;98620.56;5027989;28;20048;-82
2023/10/11 10:53:20;;;;;;;9.45;5.30;;;;;;;18.39;64.71;98599.97;5024138;28;19925;-81
2023/10/11 10:55:46;;;;;;;10.82;5.80;;;;;;;18.40;64.76;98599.66;5020762;28;20519;-82
2023/10/11 10:58:19;;;;;;;10.48;5.18;;;;;;;18.60;65.53;98611.94;5008993;28;20037;-82
2023/10/11 11:00:46;;;;;;;17.95;7.25;;;;;;;18.67;64.39;98601.50;5028609;28;20548;-82
2023/10/11 11:03:24;;;;;;;11.23;5.32;;;;;;;18.71;64.18;98599.78;5024449;28;20544;-83
2023/10/11 11:05:56;;;;;;;17.27;6.18;;;;;;;18.72;64.42;98598.66;5027378;28;20473;-82
2023/10/11 11:08:27;;;;;;;14.65;5.40;;;;;;;18.84;64.18;98593.50;5028064;28;20092;-82
2023/10/11 11:11:20;;;;;;;10.57;6.18;;;;;;;18.98;63.98;98591.50;5029926;28;20564;-82
2023/10/11 11:13:49;;;;;;;17.35;6.03;;;;;;;19.07;63.28;98599.66;5015421;28;20040;-83
2023/10/11 11:16:29;;;;;;;6.30;4.60;;;;;;;19.17;63.57;98599.44;5024739;28;20021;-82
2023/10/11 11:19:00;;;;;;;10.77;5.55;;;;;;;19.17;63.37;98596.72;5012140;28;20397;-82
2023/10/11 11:21:29;;;;;;;13.23;6.22;;;;;;;19.27;63.28;98604.56;5002470;28;20037;-82
2023/10/11 11:23:55;;;;;;;10.60;5.60;;;;;;;19.34;63.32;98588.69;5013484;28;20021;-83
2023/10/11 11:26:33;;;;;;;12.50;5.72;;;;;;;19.45;63.07;98611.69;5031485;28;20030;-82
2023/10/11 11:29:09;;;;;;;13.82;5.80;;;;;;;19.43;62.90;98598.50;5029726;28;20052;-83
2023/10/11 11:31:51;;;;;;;11.32;5.45;;;;;;;19.42;62.75;98593.38;5011614;28;20033;-83
2023/10/11 11:34:27;;;;;;;13.63;6.82;;;;;;;19.53;62.51;98591.22;5023502;28;20030;-83
2023/10/11 11:37:00;;;;;;;12.05;5.82;;;;;;;19.66;62.24;98590.28;5012379;28;20029;-82
2023/10/11 11:41:57;;;;;;;14.75;6.90;;;;;;;19.80;62.55;98586.34;5029275;28;20029;-82
2023/10/11 11:44:23;;;;;;;10.90;5.38;;;;;;;19.87;62.08;98583.19;5028315;28;20065;-83
2023/10/11 11:46:54;;;;;;;11.95;6.28;;;;;;;19.84;61.92;98564.84;4997137;28;22101;-83
2023/10/11 11:49:24;;;;;;;13.30;6.43;;;;;;;19.83;62.26;98557.84;5006032;28;20088;-83
2023/10/11 11:51:51;;;;;;;9.00;5.95;;;;;;;20.02;62.26;98556.44;5030241;28;20075;-83
2023/10/11 11:54:19;;;;;;;13.45;6.60;;;;;;;20.20;62.27;98570.81;5030302;28;20045;-83
2023/10/11 11:56:45;;;;;;;8.30;5.35;;;;;;;20.08;62.08;98574.13;4991378;28;20065;-83
2023/10/11 11:59:17;;;;;;;14.90;6.20;;;;;;;20.15;62.01;98552.00;5027455;28;20041;-83
2023/10/11 12:01:53;;;;;;;13.40;5.78;;;;;;;20.35;61.65;98562.25;5025240;28;20428;-83
2023/10/11 12:04:29;;;;;;;14.90;6.15;;;;;;;20.27;61.01;98544.03;5011395;28;20029;-83
2023/10/11 12:07:03;;;;;;;16.92;6.57;;;;;;;20.38;61.24;98564.28;5032962;28;20060;-83
2023/10/11 12:09:34;;;;;;;13.45;6.45;;;;;;;20.38;61.75;98558.09;5007924;28;20021;-83
2023/10/11 12:12:06;;;;;;;15.13;6.30;;;;;;;20.44;61.55;98549.47;5009119;28;20042;-83
2023/10/11 12:14:37;;;;;;;13.73;5.60;;;;;;;20.51;61.16;98538.16;5023361;28;20033;-83
2023/10/11 12:17:09;;;;;;;17.65;6.80;;;;;;;20.52;62.39;98537.81;5028722;28;20031;-83
2023/10/11 12:19:41;;;;;;;13.38;6.53;;;;;;;20.59;61.29;98538.16;5011089;28;20037;-83
2023/10/11 12:22:13;;;;;;;11.40;6.13;;;;;;;20.55;61.35;98531.75;5029766;28;20637;-83
2023/10/11 12:24:44;;;;;;;11.15;5.85;;;;;;;20.58;61.35;98530.31;5029424;28;20030;-83
2023/10/11 12:27:11;;;;;;;13.07;6.30;;;;;;;20.53;61.48;98527.78;5029196;28;20032;-82